EJA209 KCAE-KBKL
Flight info
| Callsign | EJA209 |
|---|---|
| Flight time | N/A |
| Altitude | 17000 |
| Route | BZM/N0457F400 HVQ/N0460F390 JANYS ROLLN2 |
| Aircraft | CL60/M-SADE3FGHIJ3J4J7P2RWXY/HB1D1 |
Departure
| Time | N/A |
|---|---|
| Airport | Columbia Metropolitan Airport (KCAE) |
Arrival
| Time | 2026-05-09 00:27 |
|---|---|
| Airport | Burke Lakefront Airport (KBKL) |
| Time | Latitude | Longitude | Altitude | Speed | Heading |
|---|---|---|---|---|---|
| 2026-05-09 00:17 | 41.52321 | -81.46380 | 3579 ft | 198 kts | 18° |
| 2026-05-09 00:17 | 41.53636 | -81.45624 | 3090 ft | 210 kts | 20° |
| 2026-05-09 00:17 | 41.54949 | -81.44848 | 2997 ft | 198 kts | 20° |
| 2026-05-09 00:17 | 41.56182 | -81.44119 | 3022 ft | 200 kts | 20° |
| 2026-05-09 00:18 | 41.57558 | -81.43319 | 2969 ft | 220 kts | 20° |
| 2026-05-09 00:18 | 41.58945 | -81.42514 | 2991 ft | 216 kts | 20° |
| 2026-05-09 00:18 | 41.60335 | -81.41717 | 2992 ft | 217 kts | 20° |
| 2026-05-09 00:18 | 41.61725 | -81.40929 | 2994 ft | 217 kts | 20° |
| 2026-05-09 00:19 | 41.63113 | -81.40136 | 2995 ft | 217 kts | 21° |
| 2026-05-09 00:19 | 41.64370 | -81.39001 | 2990 ft | 220 kts | 39° |
| 2026-05-09 00:19 | 41.65499 | -81.37626 | 2991 ft | 220 kts | 41° |
| 2026-05-09 00:19 | 41.66626 | -81.36233 | 2993 ft | 220 kts | 38° |
| 2026-05-09 00:20 | 41.67948 | -81.35365 | 2991 ft | 214 kts | 2° |
| 2026-05-09 00:20 | 41.69327 | -81.35736 | 2996 ft | 205 kts | 323° |
| 2026-05-09 00:20 | 41.70169 | -81.37172 | 3001 ft | 197 kts | 283° |
| 2026-05-09 00:20 | 41.70065 | -81.38937 | 3004 ft | 194 kts | 242° |
| 2026-05-09 00:21 | 41.69124 | -81.40222 | 3007 ft | 197 kts | 216° |
| 2026-05-09 00:21 | 41.67959 | -81.41204 | 3021 ft | 197 kts | 213° |
| 2026-05-09 00:21 | 41.66784 | -81.42143 | 3007 ft | 193 kts | 213° |
| 2026-05-09 00:21 | 41.65671 | -81.43029 | 3013 ft | 182 kts | 213° |
| 2026-05-09 00:22 | 41.64590 | -81.43888 | 3001 ft | 179 kts | 213° |
| 2026-05-09 00:22 | 41.63522 | -81.44740 | 2998 ft | 178 kts | 213° |
| 2026-05-09 00:22 | 41.62515 | -81.45687 | 2992 ft | 176 kts | 225° |
| 2026-05-09 00:22 | 41.61754 | -81.46956 | 2992 ft | 175 kts | 238° |
| 2026-05-09 00:23 | 41.61135 | -81.48351 | 2998 ft | 175 kts | 241° |
| 2026-05-09 00:23 | 41.60535 | -81.49758 | 2991 ft | 174 kts | 240° |
| 2026-05-09 00:23 | 41.59923 | -81.51146 | 3007 ft | 173 kts | 240° |
| 2026-05-09 00:23 | 41.59322 | -81.52520 | 2986 ft | 168 kts | 240° |
| 2026-05-09 00:24 | 41.58728 | -81.53857 | 2812 ft | 166 kts | 238° |
| 2026-05-09 00:24 | 41.58108 | -81.55137 | 2663 ft | 163 kts | 237° |
| 2026-05-09 00:24 | 41.57484 | -81.56408 | 2445 ft | 164 kts | 238° |
| 2026-05-09 00:24 | 41.56881 | -81.57616 | 2283 ft | 150 kts | 237° |
| 2026-05-09 00:25 | 41.56326 | -81.58751 | 2057 ft | 144 kts | 239° |
| 2026-05-09 00:25 | 41.55824 | -81.59824 | 1933 ft | 131 kts | 238° |
| 2026-05-09 00:25 | 41.55351 | -81.60830 | 1795 ft | 127 kts | 238° |
| 2026-05-09 00:25 | 41.54890 | -81.61836 | 1605 ft | 127 kts | 238° |
| 2026-05-09 00:26 | 41.54424 | -81.62825 | 1430 ft | 124 kts | 237° |
| 2026-05-09 00:26 | 41.53974 | -81.63796 | 1253 ft | 123 kts | 236° |
| 2026-05-09 00:26 | 41.53520 | -81.64760 | 1073 ft | 123 kts | 236° |
| 2026-05-09 00:26 | 41.53064 | -81.65718 | 903 ft | 122 kts | 235° |
| 2026-05-09 00:27 | 41.52618 | -81.66662 | 729 ft | 119 kts | 236° |
| 2026-05-09 00:27 | 41.52182 | -81.67574 | 590 ft | 111 kts | 235° |
| 2026-05-09 00:27 | 41.51833 | -81.68309 | 589 ft | 65 kts | 238° |
| 2026-05-09 00:27 | 41.51711 | -81.68567 | 589 ft | 19 kts | 230° |
| 2026-05-09 00:28 | 41.51600 | -81.68686 | 588 ft | 21 kts | 207° |
| 2026-05-09 00:28 | 41.51501 | -81.68754 | 588 ft | 12 kts | 206° |
| 2026-05-09 00:28 | 41.51427 | -81.68775 | 588 ft | 7 kts | 162° |
| 2026-05-09 00:28 | 41.51394 | -81.68766 | 588 ft | 4 kts | 196° |
| 2026-05-09 00:29 | 41.51367 | -81.68811 | 588 ft | 6 kts | 220° |
| 2026-05-09 00:29 | 41.51317 | -81.68809 | 588 ft | 8 kts | 215° |
| 2026-05-09 00:29 | 41.51292 | -81.68858 | 588 ft | 0 kts | 238° |